Time;durP1;ratioP1;P1;durP2;ratioP2;P2;SDS_P1;SDS_P2;PMS_P1;PMS_P2;Temp;Humidity;BMP_temperature;BMP_pressure;BME280_temperature;BME280_humidity;BME280_pressure;Samples;Min_cycle;Max_cycle;Signal;HPM_P1;HPM_P2
2021/09/16 00:01:40;;;;;;;37.10;27.08;;;16.10;99.90;;;;;;5081291;28;20509;-78
2021/09/16 00:04:06;;;;;;;35.35;26.23;;;16.10;99.90;;;;;;5083335;28;20103;-78
2021/09/16 00:06:32;;;;;;;38.88;27.42;;;16.10;99.90;;;;;;5079582;28;20021;-77
2021/09/16 00:08:57;;;;;;;35.90;26.40;;;16.10;99.90;;;;;;5082903;28;20031;-77
2021/09/16 00:11:23;;;;;;;32.80;26.02;;;16.00;99.90;;;;;;5082220;28;20750;-77
2021/09/16 00:13:49;;;;;;;37.72;26.13;;;16.00;99.90;;;;;;5081863;28;20024;-77
2021/09/16 00:16:15;;;;;;;35.45;26.77;;;16.00;99.90;;;;;;5078551;28;20016;-77
2021/09/16 00:18:40;;;;;;;34.08;24.77;;;16.00;99.90;;;;;;5078662;28;20024;-77
2021/09/16 00:21:06;;;;;;;37.28;25.83;;;16.00;99.90;;;;;;5081116;28;20020;-77
2021/09/16 00:23:32;;;;;;;38.60;27.73;;;16.00;99.90;;;;;;5082382;28;20016;-78
2021/09/16 00:25:57;;;;;;;34.60;25.00;;;16.00;99.90;;;;;;5083617;28;20032;-77
2021/09/16 00:28:23;;;;;;;36.22;25.38;;;15.90;99.90;;;;;;5082195;28;20049;-77
2021/09/16 00:30:49;;;;;;;34.05;25.52;;;16.00;99.90;;;;;;5082136;28;20024;-77
2021/09/16 00:33:14;;;;;;;35.20;25.30;;;16.00;99.90;;;;;;5083384;28;20028;-77
2021/09/16 00:35:40;;;;;;;32.03;23.52;;;16.00;99.90;;;;;;5080320;28;20028;-77
2021/09/16 00:38:06;;;;;;;31.75;24.95;;;15.90;99.90;;;;;;5080422;28;20021;-77
2021/09/16 00:40:32;;;;;;;36.17;25.30;;;16.00;99.90;;;;;;5077579;28;20552;-77
2021/09/16 00:42:57;;;;;;;32.90;25.67;;;16.00;99.90;;;;;;5081915;28;20016;-77
2021/09/16 00:45:23;;;;;;;33.30;25.38;;;16.00;99.90;;;;;;5083989;28;20107;-77
2021/09/16 00:47:50;;;;;;;37.20;25.95;;;16.00;99.90;;;;;;5083401;28;20024;-77
2021/09/16 00:50:20;;;;;;;37.22;26.85;;;16.00;99.90;;;;;;5084283;28;20051;-77
2021/09/16 00:52:46;;;;;;;31.90;25.65;;;16.00;99.90;;;;;;5082506;28;20027;-77
2021/09/16 00:55:13;;;;;;;34.38;25.77;;;16.00;99.90;;;;;;5079325;28;20024;-77
2021/09/16 00:57:41;;;;;;;33.38;24.55;;;16.00;99.90;;;;;;5075852;28;20025;-77
2021/09/16 01:00:08;;;;;;;36.15;26.40;;;16.00;99.90;;;;;;5075864;28;20097;-77
2021/09/16 01:02:34;;;;;;;37.55;25.60;;;16.00;99.90;;;;;;5082380;28;20039;-76
2021/09/16 01:05:00;;;;;;;35.55;26.15;;;16.00;99.90;;;;;;5081314;28;20016;-76
2021/09/16 01:07:25;;;;;;;37.40;26.33;;;16.00;99.90;;;;;;5080746;28;20023;-77
2021/09/16 01:09:51;;;;;;;37.25;25.45;;;16.00;99.90;;;;;;5080433;28;20120;-77
2021/09/16 01:12:17;;;;;;;38.65;25.08;;;16.00;99.90;;;;;;5082178;28;20481;-77
2021/09/16 01:14:44;;;;;;;36.15;25.40;;;16.10;99.90;;;;;;5078954;28;20028;-76
2021/09/16 01:17:09;;;;;;;37.75;25.45;;;16.10;99.90;;;;;;5084630;28;20020;-77
2021/09/16 01:19:35;;;;;;;34.38;25.05;;;16.10;99.90;;;;;;5084966;28;20114;-78
2021/09/16 01:22:01;;;;;;;37.42;24.35;;;16.10;99.90;;;;;;5079360;28;20095;-78
2021/09/16 01:24:27;;;;;;;34.78;24.38;;;16.10;99.90;;;;;;5080503;28;20034;-77
2021/09/16 01:26:52;;;;;;;35.00;26.20;;;16.10;99.90;;;;;;5084598;28;20024;-78
2021/09/16 01:29:18;;;;;;;32.05;23.83;;;16.10;99.90;;;;;;5086279;28;20027;-77
2021/09/16 01:31:46;;;;;;;32.00;24.73;;;16.10;99.90;;;;;;5078676;28;20056;-78
2021/09/16 01:34:15;;;;;;;33.13;23.95;;;16.10;99.90;;;;;;5083435;28;20084;-77
2021/09/16 01:36:43;;;;;;;33.42;24.10;;;16.10;99.90;;;;;;5079954;28;20470;-77
2021/09/16 01:39:11;;;;;;;31.33;23.25;;;16.10;99.90;;;;;;5080965;28;20167;-77
2021/09/16 01:41:37;;;;;;;33.13;23.52;;;16.10;99.90;;;;;;5095088;28;20025;-77
2021/09/16 01:44:03;;;;;;;29.63;22.73;;;16.10;99.90;;;;;;5079175;28;20032;-77
2021/09/16 01:46:29;;;;;;;28.40;21.42;;;16.20;99.90;;;;;;5078941;28;20048;-77
2021/09/16 01:48:58;;;;;;;35.10;25.23;;;16.20;99.90;;;;;;5078985;28;20024;-77
2021/09/16 01:51:25;;;;;;;39.97;27.35;;;16.20;99.90;;;;;;5080821;28;20111;-77
2021/09/16 01:53:51;;;;;;;35.50;26.70;;;16.20;99.90;;;;;;5079923;28;20024;-78
2021/09/16 01:56:16;;;;;;;31.95;24.35;;;16.20;99.90;;;;;;5085571;28;20024;-77
2021/09/16 01:58:42;;;;;;;32.30;24.50;;;16.20;99.90;;;;;;5086033;28;20033;-77
2021/09/16 02:01:08;;;;;;;30.25;24.48;;;16.20;99.90;;;;;;5083255;28;20043;-77
2021/09/16 02:03:34;;;;;;;33.67;23.90;;;16.20;99.90;;;;;;5083022;28;20043;-78
2021/09/16 02:05:59;;;;;;;33.15;24.45;;;16.20;99.90;;;;;;5082083;28;20032;-77
2021/09/16 02:08:25;;;;;;;30.42;23.77;;;16.20;99.90;;;;;;5084165;28;20028;-77
2021/09/16 02:10:51;;;;;;;35.05;26.05;;;16.20;99.90;;;;;;5084544;28;20035;-78
2021/09/16 02:13:17;;;;;;;33.72;24.40;;;16.10;99.90;;;;;;5085298;28;20512;-79
2021/09/16 02:15:42;;;;;;;35.83;26.00;;;16.10;99.90;;;;;;5083387;28;20367;-77
2021/09/16 02:18:08;;;;;;;32.97;24.48;;;16.10;99.90;;;;;;5082636;28;20077;-78
2021/09/16 02:20:34;;;;;;;30.85;24.05;;;16.10;99.90;;;;;;5083763;28;20478;-77
2021/09/16 02:23:00;;;;;;;35.13;23.67;;;16.10;99.90;;;;;;5082602;28;20039;-78
2021/09/16 02:25:26;;;;;;;32.10;25.38;;;16.20;99.90;;;;;;5082208;28;20028;-77
2021/09/16 02:27:51;;;;;;;30.50;23.92;;;16.20;99.90;;;;;;5080169;28;20433;-78
2021/09/16 02:30:17;;;;;;;30.05;23.05;;;16.20;99.90;;;;;;5082001;28;20051;-77
2021/09/16 02:32:44;;;;;;;30.13;22.55;;;16.20;99.90;;;;;;5083403;28;20113;-77
2021/09/16 02:35:11;;;;;;;28.80;23.27;;;16.20;99.90;;;;;;5084953;28;20100;-78
2021/09/16 02:37:37;;;;;;;30.27;23.75;;;16.20;99.90;;;;;;5086689;28;20078;-78
2021/09/16 02:40:05;;;;;;;30.77;23.13;;;16.20;99.90;;;;;;5087064;28;20036;-78
2021/09/16 02:42:31;;;;;;;28.33;22.60;;;16.20;99.90;;;;;;5084540;28;20470;-78
2021/09/16 02:44:57;;;;;;;32.08;22.50;;;16.20;99.90;;;;;;5085395;28;20032;-78
2021/09/16 02:47:22;;;;;;;29.55;22.60;;;16.30;99.90;;;;;;5081300;28;20025;-77
2021/09/16 02:49:48;;;;;;;27.58;22.33;;;16.20;99.90;;;;;;5083183;28;20439;-77
2021/09/16 02:52:14;;;;;;;31.58;22.30;;;16.30;99.90;;;;;;5083798;28;20374;-78
2021/09/16 02:54:39;;;;;;;26.40;21.70;;;16.20;99.90;;;;;;5084928;28;20048;-77
2021/09/16 02:57:05;;;;;;;28.90;22.38;;;16.20;99.90;;;;;;5084729;28;20028;-77
2021/09/16 02:59:31;;;;;;;27.02;20.48;;;16.20;99.90;;;;;;5083379;28;20039;-77
2021/09/16 03:01:56;;;;;;;34.13;22.15;;;16.10;99.90;;;;;;5080315;28;20751;-77
2021/09/16 03:04:22;;;;;;;26.52;21.73;;;16.10;99.90;;;;;;5082599;28;20024;-77
2021/09/16 03:06:48;;;;;;;30.50;21.80;;;16.20;99.90;;;;;;5082741;28;20024;-78
2021/09/16 03:09:13;;;;;;;29.45;21.80;;;16.10;99.90;;;;;;5081718;28;20077;-77
2021/09/16 03:11:39;;;;;;;29.90;22.13;;;16.10;99.90;;;;;;5082395;28;20409;-77
2021/09/16 03:14:05;;;;;;;31.10;22.17;;;16.10;99.90;;;;;;5081401;28;20032;-77
2021/09/16 03:16:30;;;;;;;29.08;21.98;;;16.10;99.90;;;;;;5079910;28;20012;-77
2021/09/16 03:18:56;;;;;;;33.20;23.55;;;16.10;99.90;;;;;;5080851;28;20017;-77
2021/09/16 03:21:22;;;;;;;33.00;22.67;;;16.10;99.90;;;;;;5081648;28;20035;-77
2021/09/16 03:23:47;;;;;;;31.45;22.80;;;16.10;99.90;;;;;;5080891;28;20115;-78
2021/09/16 03:26:14;;;;;;;33.97;23.50;;;16.10;99.90;;;;;;5084355;28;20035;-78
2021/09/16 03:28:40;;;;;;;35.65;24.90;;;16.10;99.90;;;;;;5082290;28;20387;-77
2021/09/16 03:31:07;;;;;;;43.05;25.30;;;16.10;99.90;;;;;;5081499;28;20080;-77
2021/09/16 03:33:32;;;;;;;36.97;23.70;;;16.10;99.90;;;;;;5082526;28;20071;-78
2021/09/16 03:35:59;;;;;;;35.42;24.08;;;16.00;99.90;;;;;;5086642;28;20535;-78
2021/09/16 03:38:25;;;;;;;33.40;24.08;;;16.10;99.90;;;;;;5084280;28;20036;-78
2021/09/16 03:40:50;;;;;;;34.95;23.67;;;16.10;99.90;;;;;;5081798;28;20486;-78
2021/09/16 03:43:16;;;;;;;32.70;23.90;;;16.10;99.90;;;;;;5080887;28;20523;-78
2021/09/16 03:45:42;;;;;;;34.08;23.40;;;16.10;99.90;;;;;;5080480;28;20363;-77
2021/09/16 03:48:08;;;;;;;35.60;24.83;;;16.10;99.90;;;;;;5081960;28;20035;-78
2021/09/16 03:50:34;;;;;;;32.45;24.15;;;16.00;99.90;;;;;;5078541;28;20029;-77
2021/09/16 03:53:00;;;;;;;46.00;29.15;;;16.10;99.90;;;;;;5078286;28;20028;-78
2021/09/16 03:55:26;;;;;;;46.53;28.98;;;16.00;99.90;;;;;;5081203;28;20017;-78
2021/09/16 03:57:52;;;;;;;48.05;29.60;;;16.00;99.90;;;;;;5079706;28;20115;-78
2021/09/16 04:00:18;;;;;;;34.33;24.50;;;16.00;99.90;;;;;;5081784;28;20402;-78
2021/09/16 04:02:44;;;;;;;36.47;25.02;;;16.00;99.90;;;;;;5086616;28;20024;-78
2021/09/16 04:05:10;;;;;;;27.65;22.73;;;16.00;99.90;;;;;;5077532;28;20371;-77
2021/09/16 04:07:36;;;;;;;38.85;25.17;;;15.90;99.90;;;;;;5081266;28;20028;-77
2021/09/16 04:10:03;;;;;;;39.50;25.90;;;16.00;99.90;;;;;;5082305;28;20521;-77
2021/09/16 04:12:28;;;;;;;36.20;24.08;;;15.90;99.90;;;;;;5083309;28;20021;-78
2021/09/16 04:14:54;;;;;;;39.35;25.55;;;15.90;99.90;;;;;;5083053;28;20035;-77
2021/09/16 04:17:19;;;;;;;34.10;23.70;;;15.90;99.90;;;;;;5080115;28;20393;-77
2021/09/16 04:19:45;;;;;;;26.30;21.05;;;15.90;99.90;;;;;;5082045;28;20040;-77
2021/09/16 04:22:11;;;;;;;27.80;19.80;;;16.00;99.90;;;;;;5082210;28;20028;-78
2021/09/16 04:24:36;;;;;;;27.33;20.20;;;15.90;99.90;;;;;;5083328;28;20029;-77
2021/09/16 04:27:03;;;;;;;26.65;19.63;;;15.90;99.90;;;;;;5082128;28;20058;-77
2021/09/16 04:29:29;;;;;;;25.42;19.60;;;15.90;99.90;;;;;;5093080;28;20024;-77
2021/09/16 04:31:56;;;;;;;21.05;17.13;;;15.90;99.90;;;;;;5079833;28;20434;-77
2021/09/16 04:34:22;;;;;;;32.15;20.50;;;16.00;99.90;;;;;;5078135;28;20040;-77
2021/09/16 04:36:47;;;;;;;22.08;18.38;;;15.90;99.90;;;;;;5081213;28;20041;-76
2021/09/16 04:39:13;;;;;;;25.35;20.67;;;16.00;99.90;;;;;;5077813;28;20080;-77
2021/09/16 04:41:39;;;;;;;27.50;20.05;;;16.00;99.90;;;;;;5078257;28;20016;-76
2021/09/16 04:44:04;;;;;;;29.10;21.75;;;16.00;99.90;;;;;;5078552;28;20033;-76
2021/09/16 04:46:31;;;;;;;30.48;22.45;;;16.00;99.90;;;;;;5076915;28;20020;-77
2021/09/16 04:48:56;;;;;;;28.70;23.13;;;16.00;99.90;;;;;;5077971;28;20036;-76
2021/09/16 04:51:22;;;;;;;30.05;23.08;;;16.00;99.90;;;;;;5077723;28;20029;-77
2021/09/16 04:53:48;;;;;;;31.33;23.23;;;16.00;99.90;;;;;;5079176;28;20039;-77
2021/09/16 04:56:13;;;;;;;40.00;23.42;;;16.00;99.90;;;;;;5078473;28;20089;-76
2021/09/16 04:58:39;;;;;;;34.13;22.83;;;16.00;99.90;;;;;;5081295;28;20086;-78
2021/09/16 05:01:05;;;;;;;34.90;24.40;;;16.00;99.90;;;;;;5073802;28;20028;-77
2021/09/16 05:03:30;;;;;;;31.50;22.52;;;16.10;99.90;;;;;;5077609;28;20043;-77
2021/09/16 05:05:56;;;;;;;32.58;24.00;;;16.10;99.90;;;;;;5083526;28;20021;-76
2021/09/16 05:08:21;;;;;;;29.15;23.33;;;16.00;99.90;;;;;;5076769;28;20102;-77
2021/09/16 05:10:47;;;;;;;33.97;22.85;;;16.10;99.90;;;;;;5078360;28;20101;-76
2021/09/16 05:13:13;;;;;;;33.70;23.55;;;16.10;99.90;;;;;;5075249;28;23757;-77
2021/09/16 05:15:38;;;;;;;31.38;22.67;;;16.10;99.90;;;;;;5081396;28;20021;-78
2021/09/16 05:18:04;;;;;;;31.45;23.83;;;16.10;99.90;;;;;;5079194;28;21393;-77
2021/09/16 05:20:30;;;;;;;30.88;23.50;;;16.10;99.90;;;;;;5074430;28;20093;-77
2021/09/16 05:22:56;;;;;;;32.88;24.45;;;16.20;99.90;;;;;;5079246;28;20020;-78
2021/09/16 05:25:22;;;;;;;28.60;22.35;;;16.20;99.90;;;;;;5079141;28;20039;-79
2021/09/16 05:27:47;;;;;;;32.63;21.42;;;16.20;99.90;;;;;;5077453;28;20036;-79
2021/09/16 05:30:14;;;;;;;33.67;22.42;;;16.20;99.90;;;;;;5081008;28;20049;-78
2021/09/16 05:32:40;;;;;;;33.70;22.70;;;16.20;99.90;;;;;;5081581;28;20024;-78
2021/09/16 05:35:06;;;;;;;29.42;22.13;;;16.20;99.90;;;;;;5082267;28;20051;-79
2021/09/16 05:37:32;;;;;;;28.73;22.42;;;16.20;99.90;;;;;;5082277;28;20021;-77
2021/09/16 05:39:58;;;;;;;32.50;23.70;;;16.20;99.90;;;;;;5080705;28;20047;-78
2021/09/16 05:42:25;;;;;;;29.75;21.95;;;16.20;99.90;;;;;;5078807;28;20484;-78
2021/09/16 05:44:51;;;;;;;27.70;22.73;;;16.20;99.90;;;;;;5078562;28;20117;-78
2021/09/16 05:47:17;;;;;;;32.72;22.77;;;16.20;99.90;;;;;;5091084;28;20017;-77
2021/09/16 05:49:43;;;;;;;34.42;23.13;;;16.20;99.90;;;;;;5081321;28;20482;-77
2021/09/16 05:52:08;;;;;;;31.13;22.83;;;16.20;99.90;;;;;;5082176;28;20024;-78
2021/09/16 05:54:34;;;;;;;28.17;22.40;;;16.30;99.90;;;;;;5082754;28;20040;-78
2021/09/16 05:57:00;;;;;;;36.92;24.90;;;16.40;99.90;;;;;;5082640;28;20484;-77
2021/09/16 05:59:25;;;;;;;32.97;22.75;;;16.40;99.90;;;;;;5083881;28;20136;-77
2021/09/16 06:01:51;;;;;;;38.00;24.63;;;16.50;99.90;;;;;;5078560;28;20095;-78
2021/09/16 06:04:16;;;;;;;34.97;24.25;;;16.60;99.90;;;;;;5081238;28;20039;-76
2021/09/16 06:06:42;;;;;;;32.38;24.45;;;16.70;99.90;;;;;;5083241;28;20020;-77
2021/09/16 06:09:08;;;;;;;40.05;24.50;;;16.80;99.90;;;;;;5084385;28;20039;-77
2021/09/16 06:11:33;;;;;;;35.33;23.17;;;16.90;99.90;;;;;;5080611;28;20063;-78
2021/09/16 06:13:59;;;;;;;30.98;22.55;;;17.00;99.90;;;;;;5081983;28;20115;-77
2021/09/16 06:16:25;;;;;;;30.25;22.95;;;17.10;99.90;;;;;;5081439;28;20039;-77
2021/09/16 06:18:51;;;;;;;26.63;21.00;;;17.20;99.90;;;;;;5084867;28;20028;-77
2021/09/16 06:21:18;;;;;;;27.92;20.38;;;17.30;99.90;;;;;;5081400;28;20326;-77
2021/09/16 06:23:43;;;;;;;26.20;19.45;;;17.40;99.90;;;;;;5083083;28;20067;-77
2021/09/16 06:26:09;;;;;;;26.85;20.90;;;17.50;99.90;;;;;;5082735;28;20059;-79
2021/09/16 06:28:35;;;;;;;24.85;18.50;;;17.60;99.90;;;;;;5081266;28;20074;-80
2021/09/16 06:31:01;;;;;;;25.83;19.70;;;17.70;99.90;;;;;;5080498;28;20024;-80
2021/09/16 06:33:26;;;;;;;24.38;18.23;;;17.70;99.90;;;;;;5080832;28;20031;-80
2021/09/16 06:35:52;;;;;;;27.63;19.42;;;17.80;99.90;;;;;;5083315;28;20013;-80
2021/09/16 06:38:18;;;;;;;32.65;18.35;;;18.00;99.90;;;;;;5075128;28;20090;-80
2021/09/16 06:40:43;;;;;;;28.48;18.25;;;18.10;99.90;;;;;;5082167;28;20561;-80
2021/09/16 06:43:09;;;;;;;21.27;16.63;;;18.20;99.90;;;;;;5082251;28;20051;-80
2021/09/16 06:45:36;;;;;;;22.20;18.92;;;18.30;99.90;;;;;;5083515;28;20106;-81
2021/09/16 06:48:01;;;;;;;23.30;18.42;;;18.50;99.90;;;;;;5081446;28;20021;-80
2021/09/16 06:50:27;;;;;;;23.70;16.67;;;18.60;99.90;;;;;;5082860;28;20094;-80
2021/09/16 06:52:53;;;;;;;22.98;16.45;;;18.70;99.90;;;;;;5078780;28;20060;-80
2021/09/16 06:55:18;;;;;;;22.55;17.70;;;18.80;99.90;;;;;;5080972;28;20069;-80
2021/09/16 06:57:44;;;;;;;21.17;17.50;;;18.80;99.90;;;;;;5083421;28;20048;-80
2021/09/16 07:00:10;;;;;;;27.33;16.30;;;18.90;99.90;;;;;;5083720;28;20056;-80
2021/09/16 07:02:36;;;;;;;22.33;17.63;;;19.00;99.90;;;;;;5081783;28;20023;-80
2021/09/16 07:05:03;;;;;;;24.73;17.45;;;19.10;99.90;;;;;;5083896;28;20023;-80
2021/09/16 07:07:29;;;;;;;23.15;17.60;;;19.10;99.90;;;;;;5081234;28;21694;-80
2021/09/16 07:09:54;;;;;;;22.05;17.65;;;19.20;99.90;;;;;;5079826;28;20035;-80
2021/09/16 07:12:20;;;;;;;22.05;16.40;;;19.20;99.90;;;;;;5083731;28;20028;-80
2021/09/16 07:14:46;;;;;;;23.02;18.08;;;19.30;99.90;;;;;;5082506;28;20024;-80
2021/09/16 07:17:12;;;;;;;24.75;17.73;;;19.40;99.90;;;;;;5082690;28;20024;-80
2021/09/16 07:19:37;;;;;;;21.40;18.27;;;19.50;99.90;;;;;;5082764;28;20029;-80
2021/09/16 07:22:03;;;;;;;28.52;19.45;;;19.50;99.90;;;;;;5084626;28;20082;-80
2021/09/16 07:24:29;;;;;;;23.65;17.73;;;19.60;99.90;;;;;;5081409;28;20046;-80
2021/09/16 07:26:55;;;;;;;23.92;18.50;;;19.70;99.90;;;;;;5084473;28;20024;-80
2021/09/16 07:29:22;;;;;;;24.15;17.60;;;19.80;99.90;;;;;;5081497;28;20036;-81
2021/09/16 07:31:51;;;;;;;27.10;20.05;;;19.90;99.90;;;;;;5081585;28;20060;-81
2021/09/16 07:34:18;;;;;;;23.42;18.33;;;20.00;99.90;;;;;;5083617;28;20394;-80
2021/09/16 07:36:45;;;;;;;23.48;18.83;;;20.10;99.90;;;;;;5082046;28;20024;-80
2021/09/16 07:39:12;;;;;;;26.23;20.00;;;20.20;99.90;;;;;;5083498;28;20399;-81
2021/09/16 07:41:38;;;;;;;26.40;19.70;;;20.30;99.90;;;;;;5082462;28;20020;-81
2021/09/16 07:44:04;;;;;;;27.92;18.73;;;20.30;99.90;;;;;;5083409;28;20077;-80
2021/09/16 07:46:31;;;;;;;26.83;20.15;;;20.40;99.90;;;;;;5081775;28;20027;-80
2021/09/16 07:48:57;;;;;;;25.83;19.50;;;20.40;99.90;;;;;;5083343;28;20024;-81
2021/09/16 07:51:23;;;;;;;21.83;18.58;;;20.40;99.90;;;;;;5083532;28;20051;-80
2021/09/16 07:53:49;;;;;;;23.48;18.67;;;20.40;99.90;;;;;;5081491;28;20055;-80
2021/09/16 07:56:15;;;;;;;23.90;19.67;;;20.50;99.90;;;;;;5077481;28;20116;-80
2021/09/16 07:58:43;;;;;;;24.38;19.08;;;20.50;99.90;;;;;;5081379;28;20028;-80
2021/09/16 08:01:09;;;;;;;27.05;20.58;;;20.40;99.90;;;;;;5085721;28;20032;-80
2021/09/16 08:03:35;;;;;;;28.80;20.48;;;20.40;99.90;;;;;;5078802;28;20020;-80
2021/09/16 08:06:00;;;;;;;26.83;20.98;;;20.40;99.90;;;;;;5092706;28;20031;-80
2021/09/16 08:08:26;;;;;;;28.02;21.48;;;20.50;99.90;;;;;;5091479;28;20410;-80
2021/09/16 08:10:52;;;;;;;29.73;20.90;;;20.50;99.90;;;;;;5084392;28;20474;-81
2021/09/16 08:13:18;;;;;;;27.55;20.45;;;20.50;99.90;;;;;;5081255;28;20398;-81
2021/09/16 08:15:43;;;;;;;27.30;21.35;;;20.50;99.90;;;;;;5081886;28;20039;-81
2021/09/16 08:18:09;;;;;;;30.55;21.55;;;20.60;99.90;;;;;;5080561;28;20025;-81
2021/09/16 08:20:44;;;;;;;30.02;20.70;;;20.60;99.90;;;;;;5080088;28;20040;-80
2021/09/16 08:23:09;;;;;;;27.13;20.02;;;20.70;99.90;;;;;;5084089;28;20125;-80
2021/09/16 08:25:35;;;;;;;33.15;22.92;;;20.70;99.90;;;;;;5083151;28;20106;-80
2021/09/16 08:28:01;;;;;;;30.00;22.02;;;20.70;99.90;;;;;;5082643;28;20450;-81
2021/09/16 08:30:27;;;;;;;31.58;22.77;;;20.70;99.90;;;;;;5081409;28;20024;-81
2021/09/16 08:32:53;;;;;;;30.33;22.00;;;20.70;99.90;;;;;;5079116;28;20024;-81
2021/09/16 08:35:19;;;;;;;26.83;20.77;;;20.70;99.90;;;;;;5081568;28;20063;-81
2021/09/16 08:37:46;;;;;;;38.50;22.35;;;20.80;99.90;;;;;;5078914;28;20052;-80
2021/09/16 08:40:12;;;;;;;28.65;21.63;;;20.80;99.90;;;;;;5083582;28;20040;-80
2021/09/16 08:42:41;;;;;;;35.30;23.23;;;20.80;99.90;;;;;;5081636;28;20028;-81
2021/09/16 08:45:13;;;;;;;31.58;22.15;;;20.80;99.90;;;;;;5082083;28;20078;-81
2021/09/16 08:47:39;;;;;;;36.83;23.58;;;20.80;99.90;;;;;;5082193;28;20032;-81
2021/09/16 08:50:06;;;;;;;30.30;21.63;;;20.80;99.90;;;;;;5082547;28;20506;-81
2021/09/16 08:52:37;;;;;;;26.73;21.65;;;20.80;99.90;;;;;;5079914;28;20056;-81
2021/09/16 08:55:04;;;;;;;35.15;22.27;;;20.80;99.90;;;;;;5074302;28;20024;-81
2021/09/16 08:57:35;;;;;;;34.55;24.02;;;20.90;99.90;;;;;;5071339;28;20445;-80
2021/09/16 09:00:05;;;;;;;29.80;22.70;;;21.00;99.90;;;;;;5071512;28;20071;-81
2021/09/16 09:02:31;;;;;;;38.25;24.23;;;21.00;99.90;;;;;;5071760;28;20532;-81
2021/09/16 09:04:57;;;;;;;32.47;22.63;;;21.10;99.90;;;;;;5072566;28;20033;-81
2021/09/16 09:07:23;;;;;;;32.05;22.77;;;21.20;99.90;;;;;;5074125;28;20107;-81
2021/09/16 09:09:49;;;;;;;37.40;25.17;;;21.30;99.90;;;;;;5080542;28;20051;-80
2021/09/16 09:12:16;;;;;;;39.33;25.90;;;21.30;99.90;;;;;;5078215;28;20060;-81
2021/09/16 09:14:52;;;;;;;37.72;23.45;;;21.30;99.90;;;;;;5082075;28;20021;-81
2021/09/16 09:17:22;;;;;;;35.13;24.67;;;21.30;99.90;;;;;;5082900;28;20059;-81
2021/09/16 09:19:49;;;;;;;36.40;23.67;;;21.30;99.90;;;;;;5079192;28;20040;-81
2021/09/16 09:22:16;;;;;;;35.45;24.08;;;21.30;99.90;;;;;;5080545;28;20024;-81
2021/09/16 09:24:46;;;;;;;39.92;25.67;;;21.30;99.90;;;;;;5078847;28;20047;-81
2021/09/16 09:27:27;;;;;;;37.60;26.77;;;21.30;99.90;;;;;;5081928;28;20028;-81
2021/09/16 09:30:14;;;;;;;40.80;27.02;;;21.30;99.90;;;;;;5078834;28;20558;-81
2021/09/16 09:32:57;;;;;;;43.22;27.58;;;21.40;99.90;;;;;;5081907;28;20139;-81
2021/09/16 09:35:24;;;;;;;49.88;28.13;;;21.40;99.90;;;;;;5079554;28;20054;-81
2021/09/16 09:37:50;;;;;;;43.85;28.08;;;21.40;99.90;;;;;;5078553;28;20108;-81
2021/09/16 09:40:29;;;;;;;38.05;25.13;;;21.40;99.90;;;;;;5081821;28;20127;-81
2021/09/16 09:42:55;;;;;;;36.35;25.40;;;21.50;99.90;;;;;;5080516;28;20021;-81
2021/09/16 09:45:21;;;;;;;40.33;25.13;;;21.40;99.90;;;;;;5079757;28;20523;-81
2021/09/16 09:47:48;;;;;;;38.80;25.85;;;21.40;99.90;;;;;;5078580;28;20024;-81
2021/09/16 09:50:25;;;;;;;40.08;24.52;;;21.40;99.90;;;;;;5079816;28;20486;-81
2021/09/16 09:52:53;;;;;;;35.97;23.75;;;21.30;99.90;;;;;;5097796;28;20021;-81
2021/09/16 09:55:23;;;;;;;40.08;25.30;;;21.30;99.90;;;;;;5082433;28;20052;-81
2021/09/16 09:58:01;;;;;;;32.95;24.80;;;21.40;99.90;;;;;;5081711;28;20025;-81
2021/09/16 10:00:26;;;;;;;30.60;23.17;;;21.40;99.90;;;;;;5079080;28;20104;-81
2021/09/16 10:02:53;;;;;;;31.85;24.73;;;21.50;99.90;;;;;;5078945;28;20410;-81
2021/09/16 10:05:34;;;;;;;34.50;24.40;;;21.50;99.90;;;;;;5079463;28;20373;-81
2021/09/16 10:08:08;;;;;;;38.30;23.90;;;21.60;99.90;;;;;;5079390;28;20016;-81
2021/09/16 10:10:37;;;;;;;38.88;24.25;;;21.60;99.90;;;;;;5079432;28;20105;-81
2021/09/16 10:13:03;;;;;;;32.55;22.73;;;21.60;99.90;;;;;;5078140;28;20110;-81
2021/09/16 10:15:29;;;;;;;35.25;23.95;;;21.70;99.90;;;;;;5079134;28;20040;-81
2021/09/16 10:17:55;;;;;;;33.92;22.85;;;21.70;99.90;;;;;;5084286;28;20024;-81
2021/09/16 10:20:23;;;;;;;32.50;21.77;;;21.70;99.90;;;;;;5089015;28;20511;-81
2021/09/16 10:22:54;;;;;;;35.47;22.75;;;21.60;99.90;;;;;;5084172;28;20506;-81
2021/09/16 10:25:23;;;;;;;33.88;22.35;;;21.60;99.90;;;;;;5085636;28;20032;-81
2021/09/16 10:28:04;;;;;;;31.58;22.42;;;21.60;99.90;;;;;;5082491;28;20024;-81
2021/09/16 10:30:33;;;;;;;30.27;22.23;;;21.70;99.90;;;;;;5083340;28;20377;-81
2021/09/16 10:33:08;;;;;;;27.33;19.63;;;21.70;99.90;;;;;;5085595;28;20024;-81
2021/09/16 10:35:39;;;;;;;24.13;19.58;;;21.80;99.90;;;;;;5081061;28;20024;-81
2021/09/16 10:38:22;;;;;;;22.07;17.30;;;21.80;99.90;;;;;;5085433;28;20032;-81
2021/09/16 10:41:08;;;;;;;20.00;14.63;;;21.90;99.90;;;;;;5083449;28;20412;-81
2021/09/16 10:43:34;;;;;;;18.00;14.65;;;21.90;99.90;;;;;;5080999;28;20032;-81
2021/09/16 10:46:28;;;;;;;15.23;12.70;;;22.00;99.90;;;;;;5081656;28;20027;-81
2021/09/16 10:49:14;;;;;;;23.33;13.82;;;22.00;99.90;;;;;;5081933;28;20477;-81
2021/09/16 10:51:43;;;;;;;17.13;13.85;;;21.90;99.90;;;;;;5097687;28;20032;-81
2021/09/16 10:54:24;;;;;;;23.88;15.43;;;21.90;99.90;;;;;;5080854;28;20031;-81
2021/09/16 10:57:12;;;;;;;20.10;14.85;;;21.90;99.90;;;;;;5093643;28;20033;-81
2021/09/16 10:59:50;;;;;;;19.70;14.77;;;21.90;99.90;;;;;;5080838;28;20033;-81
2021/09/16 11:02:22;;;;;;;19.35;15.38;;;22.00;99.90;;;;;;5081399;28;20028;-81
2021/09/16 11:07:34;;;;;;;18.52;14.88;;;21.90;99.90;;;;;;5081973;28;20044;-80
2021/09/16 11:10:24;;;;;;;32.00;21.25;;;21.90;99.90;;;;;;5084344;28;20040;-78
2021/09/16 11:13:04;;;;;;;26.40;16.42;;;22.00;99.90;;;;;;5079650;28;20032;-79
2021/09/16 11:15:38;;;;;;;22.48;16.00;;;22.00;99.90;;;;;;5084796;28;20466;-79
2021/09/16 11:18:09;;;;;;;17.42;14.45;;;22.10;99.90;;;;;;5085235;28;20032;-79
2021/09/16 11:20:37;;;;;;;19.08;15.80;;;22.10;99.90;;;;;;5082617;28;20047;-79
2021/09/16 11:23:03;;;;;;;20.17;15.68;;;22.20;99.90;;;;;;5085639;28;20028;-79
2021/09/16 11:25:40;;;;;;;26.60;17.10;;;22.20;99.90;;;;;;5085892;28;20024;-79
2021/09/16 11:28:07;;;;;;;19.33;16.50;;;22.20;99.90;;;;;;5083760;28;20049;-78
2021/09/16 11:30:35;;;;;;;19.65;15.85;;;22.20;99.90;;;;;;5079802;28;20388;-79
2021/09/16 11:33:06;;;;;;;21.80;16.17;;;22.40;99.90;;;;;;5079283;28;20020;-79
2021/09/16 11:35:32;;;;;;;19.60;15.88;;;22.40;99.90;;;;;;5079992;28;20024;-78
2021/09/16 11:38:00;;;;;;;20.65;12.63;;;22.50;99.90;;;;;;5080828;28;20031;-77
2021/09/16 11:40:31;;;;;;;14.65;11.23;;;22.50;99.90;;;;;;5081149;28;20045;-77
2021/09/16 11:42:59;;;;;;;11.52;8.90;;;22.60;99.90;;;;;;5084341;28;20055;-76
2021/09/16 11:45:28;;;;;;;12.02;9.27;;;22.70;99.90;;;;;;5086860;28;20046;-77
2021/09/16 11:47:54;;;;;;;11.75;8.52;;;22.80;99.90;;;;;;5081747;28;20020;-78
2021/09/16 11:50:38;;;;;;;11.73;9.18;;;22.90;99.90;;;;;;5084875;28;20035;-78
2021/09/16 11:53:24;;;;;;;10.00;8.88;;;22.80;99.90;;;;;;5082035;28;20039;-77
2021/09/16 11:55:53;;;;;;;8.45;7.50;;;22.90;99.90;;;;;;5080623;28;20482;-78
2021/09/16 11:58:21;;;;;;;11.45;7.97;;;23.10;99.90;;;;;;5088138;28;20515;-78
2021/09/16 12:00:54;;;;;;;11.80;9.20;;;23.10;99.90;;;;;;5096849;28;20040;-78
2021/09/16 12:03:24;;;;;;;15.07;10.40;;;23.20;99.90;;;;;;5094904;28;20024;-78
2021/09/16 12:05:57;;;;;;;11.18;9.20;;;23.20;99.90;;;;;;5085093;28;20486;-78
2021/09/16 12:08:31;;;;;;;12.45;9.10;;;23.30;99.90;;;;;;5099236;27;20082;-77
2021/09/16 12:11:04;;;;;;;10.68;8.88;;;23.20;99.90;;;;;;5084293;28;20027;-77
2021/09/16 12:13:41;;;;;;;13.68;9.63;;;23.30;99.90;;;;;;5091510;28;20378;-77
2021/09/16 12:16:12;;;;;;;11.45;8.43;;;23.30;99.90;;;;;;5076607;28;20036;-78
2021/09/16 12:19:00;;;;;;;9.77;8.38;;;23.40;99.90;;;;;;5087747;28;20024;-78
2021/09/16 12:21:32;;;;;;;12.93;8.02;;;23.40;99.90;;;;;;5091746;28;20044;-77
2021/09/16 12:24:04;;;;;;;11.97;7.87;;;23.30;99.90;;;;;;5093709;28;20027;-78
2021/09/16 12:26:30;;;;;;;;;;;23.30;99.90;;;;;;5094020;28;20028;-77
2021/09/16 12:28:57;;;;;;;9.82;7.63;;;23.20;99.90;;;;;;5092065;28;19912;-77
2021/09/16 12:31:34;;;;;;;11.15;7.60;;;23.10;99.90;;;;;;5091969;28;20477;-77
2021/09/16 12:34:09;;;;;;;13.30;7.93;;;23.00;99.90;;;;;;5092698;28;20024;-77